sensor_id;sensor_type;location;lat;lon;timestamp;P1;durP1;ratioP1;P2;durP2;ratioP2
21886;SDS011;11108;49.988;8.182;2022-12-10T00:01:04;3.83;;;3.43;;
21886;SDS011;11108;49.988;8.182;2022-12-10T00:03:29;6.00;;;4.00;;
21886;SDS011;11108;49.988;8.182;2022-12-10T00:05:54;3.90;;;3.60;;
21886;SDS011;11108;49.988;8.182;2022-12-10T00:08:20;4.53;;;3.93;;
21886;SDS011;11108;49.988;8.182;2022-12-10T00:10:45;3.63;;;3.33;;
21886;SDS011;11108;49.988;8.182;2022-12-10T00:13:10;4.80;;;4.30;;
21886;SDS011;11108;49.988;8.182;2022-12-10T00:15:35;5.27;;;4.07;;
21886;SDS011;11108;49.988;8.182;2022-12-10T00:18:00;3.90;;;3.60;;
21886;SDS011;11108;49.988;8.182;2022-12-10T00:20:26;3.43;;;3.13;;
21886;SDS011;11108;49.988;8.182;2022-12-10T00:22:51;3.23;;;3.03;;
21886;SDS011;11108;49.988;8.182;2022-12-10T00:25:16;4.00;;;3.23;;
21886;SDS011;11108;49.988;8.182;2022-12-10T00:27:41;4.37;;;3.00;;
21886;SDS011;11108;49.988;8.182;2022-12-10T00:30:07;4.63;;;3.33;;
21886;SDS011;11108;49.988;8.182;2022-12-10T00:32:32;4.30;;;3.83;;
21886;SDS011;11108;49.988;8.182;2022-12-10T00:34:57;3.90;;;3.10;;
21886;SDS011;11108;49.988;8.182;2022-12-10T00:37:23;3.60;;;3.30;;
21886;SDS011;11108;49.988;8.182;2022-12-10T00:39:48;3.50;;;3.20;;
21886;SDS011;11108;49.988;8.182;2022-12-10T00:42:13;3.60;;;3.40;;
21886;SDS011;11108;49.988;8.182;2022-12-10T00:44:38;3.47;;;3.07;;
21886;SDS011;11108;49.988;8.182;2022-12-10T00:47:03;3.40;;;3.10;;
21886;SDS011;11108;49.988;8.182;2022-12-10T00:49:29;3.17;;;2.87;;
21886;SDS011;11108;49.988;8.182;2022-12-10T00:51:54;3.93;;;3.30;;
21886;SDS011;11108;49.988;8.182;2022-12-10T00:54:19;3.60;;;3.30;;
21886;SDS011;11108;49.988;8.182;2022-12-10T00:56:44;3.60;;;3.30;;
21886;SDS011;11108;49.988;8.182;2022-12-10T00:59:10;3.00;;;2.70;;
21886;SDS011;11108;49.988;8.182;2022-12-10T01:01:36;3.37;;;3.07;;
21886;SDS011;11108;49.988;8.182;2022-12-10T01:04:03;3.30;;;3.00;;
21886;SDS011;11108;49.988;8.182;2022-12-10T01:06:31;3.40;;;3.10;;
21886;SDS011;11108;49.988;8.182;2022-12-10T01:08:57;2.87;;;2.67;;
21886;SDS011;11108;49.988;8.182;2022-12-10T01:11:24;3.27;;;3.03;;
21886;SDS011;11108;49.988;8.182;2022-12-10T01:13:51;3.53;;;3.10;;
21886;SDS011;11108;49.988;8.182;2022-12-10T01:16:17;2.60;;;2.40;;
21886;SDS011;11108;49.988;8.182;2022-12-10T01:18:43;3.17;;;2.80;;
21886;SDS011;11108;49.988;8.182;2022-12-10T01:21:10;4.27;;;2.63;;
21886;SDS011;11108;49.988;8.182;2022-12-10T01:23:37;3.20;;;2.90;;
21886;SDS011;11108;49.988;8.182;2022-12-10T01:26:03;2.83;;;2.63;;
21886;SDS011;11108;49.988;8.182;2022-12-10T01:28:30;3.40;;;3.10;;
21886;SDS011;11108;49.988;8.182;2022-12-10T01:30:55;3.30;;;2.70;;
21886;SDS011;11108;49.988;8.182;2022-12-10T01:33:24;3.73;;;3.10;;
21886;SDS011;11108;49.988;8.182;2022-12-10T01:35:49;2.80;;;2.60;;
21886;SDS011;11108;49.988;8.182;2022-12-10T01:38:14;3.00;;;2.80;;
21886;SDS011;11108;49.988;8.182;2022-12-10T01:40:39;2.97;;;2.77;;
21886;SDS011;11108;49.988;8.182;2022-12-10T01:43:04;3.50;;;3.03;;
21886;SDS011;11108;49.988;8.182;2022-12-10T01:45:30;3.10;;;2.87;;
21886;SDS011;11108;49.988;8.182;2022-12-10T01:47:55;3.07;;;2.80;;
21886;SDS011;11108;49.988;8.182;2022-12-10T01:50:20;3.27;;;2.97;;
21886;SDS011;11108;49.988;8.182;2022-12-10T01:52:46;2.87;;;2.67;;
21886;SDS011;11108;49.988;8.182;2022-12-10T01:57:56;4.23;;;2.80;;
21886;SDS011;11108;49.988;8.182;2022-12-10T02:00:21;2.23;;;2.13;;
21886;SDS011;11108;49.988;8.182;2022-12-10T02:02:49;2.97;;;2.77;;
21886;SDS011;11108;49.988;8.182;2022-12-10T02:05:23;3.43;;;2.80;;
21886;SDS011;11108;49.988;8.182;2022-12-10T02:13:12;2.63;;;2.43;;
21886;SDS011;11108;49.988;8.182;2022-12-10T02:15:47;2.90;;;2.70;;
21886;SDS011;11108;49.988;8.182;2022-12-10T02:18:14;2.50;;;2.40;;
21886;SDS011;11108;49.988;8.182;2022-12-10T02:20:44;2.60;;;2.40;;
21886;SDS011;11108;49.988;8.182;2022-12-10T02:23:17;3.00;;;2.80;;
21886;SDS011;11108;49.988;8.182;2022-12-10T02:25:49;3.20;;;2.60;;
21886;SDS011;11108;49.988;8.182;2022-12-10T02:30:43;2.60;;;2.40;;
21886;SDS011;11108;49.988;8.182;2022-12-10T02:33:09;3.00;;;2.80;;
21886;SDS011;11108;49.988;8.182;2022-12-10T02:35:36;2.80;;;2.60;;
21886;SDS011;11108;49.988;8.182;2022-12-10T02:38:06;2.73;;;2.53;;
21886;SDS011;11108;49.988;8.182;2022-12-10T02:40:34;3.00;;;2.80;;
21886;SDS011;11108;49.988;8.182;2022-12-10T02:43:00;3.57;;;2.80;;
21886;SDS011;11108;49.988;8.182;2022-12-10T02:45:26;2.70;;;2.50;;
21886;SDS011;11108;49.988;8.182;2022-12-10T02:47:53;2.80;;;2.60;;
21886;SDS011;11108;49.988;8.182;2022-12-10T02:50:19;2.73;;;2.53;;
21886;SDS011;11108;49.988;8.182;2022-12-10T02:52:46;3.07;;;2.77;;
21886;SDS011;11108;49.988;8.182;2022-12-10T02:55:11;2.20;;;2.10;;
21886;SDS011;11108;49.988;8.182;2022-12-10T03:00:23;3.23;;;2.93;;
21886;SDS011;11108;49.988;8.182;2022-12-10T03:08:00;2.90;;;2.70;;
21886;SDS011;11108;49.988;8.182;2022-12-10T03:10:31;3.00;;;2.80;;
21886;SDS011;11108;49.988;8.182;2022-12-10T03:12:59;2.23;;;2.13;;
21886;SDS011;11108;49.988;8.182;2022-12-10T03:15:25;2.60;;;2.50;;
21886;SDS011;11108;49.988;8.182;2022-12-10T03:17:51;2.63;;;2.50;;
21886;SDS011;11108;49.988;8.182;2022-12-10T03:20:16;2.57;;;2.40;;
21886;SDS011;11108;49.988;8.182;2022-12-10T03:22:43;2.27;;;2.17;;
21886;SDS011;11108;49.988;8.182;2022-12-10T03:25:08;2.40;;;2.20;;
21886;SDS011;11108;49.988;8.182;2022-12-10T03:27:35;2.83;;;2.57;;
21886;SDS011;11108;49.988;8.182;2022-12-10T03:30:02;2.90;;;2.70;;
21886;SDS011;11108;49.988;8.182;2022-12-10T03:32:27;2.73;;;2.53;;
21886;SDS011;11108;49.988;8.182;2022-12-10T03:34:53;2.70;;;2.50;;
21886;SDS011;11108;49.988;8.182;2022-12-10T03:37:19;2.47;;;2.30;;
21886;SDS011;11108;49.988;8.182;2022-12-10T03:39:45;2.60;;;2.40;;
21886;SDS011;11108;49.988;8.182;2022-12-10T03:42:10;2.63;;;2.43;;
21886;SDS011;11108;49.988;8.182;2022-12-10T03:44:37;2.67;;;2.47;;
21886;SDS011;11108;49.988;8.182;2022-12-10T03:47:03;2.13;;;2.03;;
21886;SDS011;11108;49.988;8.182;2022-12-10T03:49:29;2.30;;;2.20;;
21886;SDS011;11108;49.988;8.182;2022-12-10T03:51:54;3.10;;;2.80;;
21886;SDS011;11108;49.988;8.182;2022-12-10T03:54:20;2.53;;;2.33;;
21886;SDS011;11108;49.988;8.182;2022-12-10T03:56:45;2.83;;;2.50;;
21886;SDS011;11108;49.988;8.182;2022-12-10T03:59:10;2.00;;;1.90;;
21886;SDS011;11108;49.988;8.182;2022-12-10T04:01:36;2.23;;;2.13;;
21886;SDS011;11108;49.988;8.182;2022-12-10T04:04:02;2.77;;;2.57;;
21886;SDS011;11108;49.988;8.182;2022-12-10T04:06:28;2.30;;;2.20;;
21886;SDS011;11108;49.988;8.182;2022-12-10T04:08:53;2.40;;;2.30;;
21886;SDS011;11108;49.988;8.182;2022-12-10T04:11:18;2.50;;;2.40;;
21886;SDS011;11108;49.988;8.182;2022-12-10T04:13:44;2.10;;;2.00;;
21886;SDS011;11108;49.988;8.182;2022-12-10T04:16:28;2.47;;;2.37;;
21886;SDS011;11108;49.988;8.182;2022-12-10T04:18:58;2.47;;;2.37;;
21886;SDS011;11108;49.988;8.182;2022-12-10T04:21:24;2.33;;;2.20;;
21886;SDS011;11108;49.988;8.182;2022-12-10T04:24:08;2.30;;;2.20;;
21886;SDS011;11108;49.988;8.182;2022-12-10T04:26:52;2.20;;;2.10;;
21886;SDS011;11108;49.988;8.182;2022-12-10T04:29:25;2.20;;;2.10;;
21886;SDS011;11108;49.988;8.182;2022-12-10T04:31:51;2.20;;;2.10;;
21886;SDS011;11108;49.988;8.182;2022-12-10T04:34:17;2.30;;;2.20;;
21886;SDS011;11108;49.988;8.182;2022-12-10T04:36:42;2.30;;;2.20;;
21886;SDS011;11108;49.988;8.182;2022-12-10T04:39:07;2.00;;;1.90;;
21886;SDS011;11108;49.988;8.182;2022-12-10T04:41:32;2.03;;;1.93;;
21886;SDS011;11108;49.988;8.182;2022-12-10T04:43:58;2.17;;;2.07;;
21886;SDS011;11108;49.988;8.182;2022-12-10T04:46:23;2.23;;;2.13;;
21886;SDS011;11108;49.988;8.182;2022-12-10T04:48:48;4.07;;;2.47;;
21886;SDS011;11108;49.988;8.182;2022-12-10T04:51:13;1.97;;;1.87;;
21886;SDS011;11108;49.988;8.182;2022-12-10T04:53:38;2.20;;;2.10;;
21886;SDS011;11108;49.988;8.182;2022-12-10T04:56:04;1.97;;;1.87;;
21886;SDS011;11108;49.988;8.182;2022-12-10T04:58:30;2.40;;;2.20;;
21886;SDS011;11108;49.988;8.182;2022-12-10T05:01:06;2.20;;;2.10;;
21886;SDS011;11108;49.988;8.182;2022-12-10T05:03:31;1.90;;;1.80;;
21886;SDS011;11108;49.988;8.182;2022-12-10T05:06:03;2.00;;;1.90;;
21886;SDS011;11108;49.988;8.182;2022-12-10T05:08:29;1.80;;;1.70;;
21886;SDS011;11108;49.988;8.182;2022-12-10T05:10:55;2.00;;;1.90;;
21886;SDS011;11108;49.988;8.182;2022-12-10T05:13:20;2.00;;;1.90;;
21886;SDS011;11108;49.988;8.182;2022-12-10T05:15:45;2.20;;;2.10;;
21886;SDS011;11108;49.988;8.182;2022-12-10T05:18:10;2.07;;;1.97;;
21886;SDS011;11108;49.988;8.182;2022-12-10T05:20:36;2.37;;;2.17;;
21886;SDS011;11108;49.988;8.182;2022-12-10T05:23:01;2.03;;;1.93;;
21886;SDS011;11108;49.988;8.182;2022-12-10T05:25:45;1.90;;;1.80;;
21886;SDS011;11108;49.988;8.182;2022-12-10T05:28:20;1.70;;;1.60;;
21886;SDS011;11108;49.988;8.182;2022-12-10T05:30:45;2.20;;;2.10;;
21886;SDS011;11108;49.988;8.182;2022-12-10T05:33:10;2.10;;;1.90;;
21886;SDS011;11108;49.988;8.182;2022-12-10T05:35:35;2.17;;;2.07;;
21886;SDS011;11108;49.988;8.182;2022-12-10T05:38:01;1.90;;;1.80;;
21886;SDS011;11108;49.988;8.182;2022-12-10T05:40:26;2.07;;;1.97;;
21886;SDS011;11108;49.988;8.182;2022-12-10T05:42:51;1.60;;;1.60;;
21886;SDS011;11108;49.988;8.182;2022-12-10T05:45:16;2.10;;;2.00;;
21886;SDS011;11108;49.988;8.182;2022-12-10T05:47:41;2.03;;;1.93;;
21886;SDS011;11108;49.988;8.182;2022-12-10T05:50:07;1.70;;;1.60;;
21886;SDS011;11108;49.988;8.182;2022-12-10T05:52:32;2.10;;;2.00;;
21886;SDS011;11108;49.988;8.182;2022-12-10T05:54:57;1.90;;;1.80;;
21886;SDS011;11108;49.988;8.182;2022-12-10T05:57:22;1.73;;;1.70;;
21886;SDS011;11108;49.988;8.182;2022-12-10T05:59:47;1.70;;;1.60;;
21886;SDS011;11108;49.988;8.182;2022-12-10T06:02:13;1.70;;;1.60;;
21886;SDS011;11108;49.988;8.182;2022-12-10T06:04:38;1.73;;;1.63;;
21886;SDS011;11108;49.988;8.182;2022-12-10T06:07:03;1.90;;;1.80;;
21886;SDS011;11108;49.988;8.182;2022-12-10T06:09:28;1.90;;;1.80;;
21886;SDS011;11108;49.988;8.182;2022-12-10T06:11:53;1.70;;;1.60;;
21886;SDS011;11108;49.988;8.182;2022-12-10T06:14:19;1.80;;;1.70;;
21886;SDS011;11108;49.988;8.182;2022-12-10T06:16:44;2.00;;;1.90;;
21886;SDS011;11108;49.988;8.182;2022-12-10T06:19:09;2.13;;;2.03;;
21886;SDS011;11108;49.988;8.182;2022-12-10T06:21:34;1.50;;;1.43;;
21886;SDS011;11108;49.988;8.182;2022-12-10T06:23:59;1.73;;;1.63;;
21886;SDS011;11108;49.988;8.182;2022-12-10T06:26:25;1.67;;;1.57;;
21886;SDS011;11108;49.988;8.182;2022-12-10T06:28:51;1.70;;;1.60;;
21886;SDS011;11108;49.988;8.182;2022-12-10T06:31:17;2.00;;;1.90;;
21886;SDS011;11108;49.988;8.182;2022-12-10T06:33:42;1.70;;;1.60;;
21886;SDS011;11108;49.988;8.182;2022-12-10T06:36:08;1.90;;;1.80;;
21886;SDS011;11108;49.988;8.182;2022-12-10T06:38:34;1.87;;;1.77;;
21886;SDS011;11108;49.988;8.182;2022-12-10T06:40:59;1.63;;;1.53;;
21886;SDS011;11108;49.988;8.182;2022-12-10T06:43:27;1.53;;;1.53;;
21886;SDS011;11108;49.988;8.182;2022-12-10T06:45:52;1.83;;;1.73;;
21886;SDS011;11108;49.988;8.182;2022-12-10T06:48:18;2.03;;;1.83;;
21886;SDS011;11108;49.988;8.182;2022-12-10T06:50:43;1.80;;;1.70;;
21886;SDS011;11108;49.988;8.182;2022-12-10T06:53:09;1.67;;;1.63;;
21886;SDS011;11108;49.988;8.182;2022-12-10T06:55:35;1.40;;;1.40;;
21886;SDS011;11108;49.988;8.182;2022-12-10T06:58:01;1.70;;;1.70;;
21886;SDS011;11108;49.988;8.182;2022-12-10T07:00:26;1.70;;;1.67;;
21886;SDS011;11108;49.988;8.182;2022-12-10T07:02:51;1.60;;;1.50;;
21886;SDS011;11108;49.988;8.182;2022-12-10T07:05:16;1.73;;;1.63;;
21886;SDS011;11108;49.988;8.182;2022-12-10T07:07:41;1.60;;;1.50;;
21886;SDS011;11108;49.988;8.182;2022-12-10T07:10:07;1.50;;;1.50;;
21886;SDS011;11108;49.988;8.182;2022-12-10T07:12:32;1.60;;;1.60;;
21886;SDS011;11108;49.988;8.182;2022-12-10T07:14:58;1.83;;;1.73;;
21886;SDS011;11108;49.988;8.182;2022-12-10T07:17:24;1.97;;;1.80;;
21886;SDS011;11108;49.988;8.182;2022-12-10T07:19:49;1.63;;;1.53;;
21886;SDS011;11108;49.988;8.182;2022-12-10T07:22:14;1.70;;;1.60;;
21886;SDS011;11108;49.988;8.182;2022-12-10T07:24:39;1.70;;;1.70;;
21886;SDS011;11108;49.988;8.182;2022-12-10T07:27:05;2.03;;;1.93;;
21886;SDS011;11108;49.988;8.182;2022-12-10T07:29:30;1.60;;;1.60;;
21886;SDS011;11108;49.988;8.182;2022-12-10T07:31:56;1.67;;;1.67;;
21886;SDS011;11108;49.988;8.182;2022-12-10T07:34:21;2.00;;;1.90;;
21886;SDS011;11108;49.988;8.182;2022-12-10T07:36:47;1.80;;;1.70;;
21886;SDS011;11108;49.988;8.182;2022-12-10T07:39:13;1.73;;;1.63;;
21886;SDS011;11108;49.988;8.182;2022-12-10T07:41:42;1.53;;;1.53;;
21886;SDS011;11108;49.988;8.182;2022-12-10T07:44:09;1.70;;;1.70;;
21886;SDS011;11108;49.988;8.182;2022-12-10T07:46:35;1.60;;;1.50;;
21886;SDS011;11108;49.988;8.182;2022-12-10T07:49:01;1.80;;;1.70;;
21886;SDS011;11108;49.988;8.182;2022-12-10T07:51:26;1.63;;;1.40;;
21886;SDS011;11108;49.988;8.182;2022-12-10T07:53:52;1.53;;;1.43;;
21886;SDS011;11108;49.988;8.182;2022-12-10T07:56:18;1.93;;;1.73;;
21886;SDS011;11108;49.988;8.182;2022-12-10T07:58:44;1.90;;;1.80;;
21886;SDS011;11108;49.988;8.182;2022-12-10T08:01:10;1.70;;;1.60;;
21886;SDS011;11108;49.988;8.182;2022-12-10T08:03:36;2.10;;;1.67;;
21886;SDS011;11108;49.988;8.182;2022-12-10T08:06:02;1.80;;;1.70;;
21886;SDS011;11108;49.988;8.182;2022-12-10T08:08:28;1.60;;;1.50;;
21886;SDS011;11108;49.988;8.182;2022-12-10T08:10:53;1.83;;;1.70;;
21886;SDS011;11108;49.988;8.182;2022-12-10T08:13:19;1.97;;;1.87;;
21886;SDS011;11108;49.988;8.182;2022-12-10T08:15:44;1.77;;;1.67;;
21886;SDS011;11108;49.988;8.182;2022-12-10T08:18:09;2.10;;;1.73;;
21886;SDS011;11108;49.988;8.182;2022-12-10T08:20:34;1.70;;;1.60;;
21886;SDS011;11108;49.988;8.182;2022-12-10T08:23:00;1.57;;;1.57;;
21886;SDS011;11108;49.988;8.182;2022-12-10T08:25:25;1.27;;;1.27;;
21886;SDS011;11108;49.988;8.182;2022-12-10T08:27:50;1.77;;;1.70;;
21886;SDS011;11108;49.988;8.182;2022-12-10T08:30:15;1.47;;;1.47;;
21886;SDS011;11108;49.988;8.182;2022-12-10T08:32:40;2.63;;;1.87;;
21886;SDS011;11108;49.988;8.182;2022-12-10T08:35:06;2.30;;;1.53;;
21886;SDS011;11108;49.988;8.182;2022-12-10T08:37:31;2.63;;;1.70;;
21886;SDS011;11108;49.988;8.182;2022-12-10T08:39:56;2.47;;;1.63;;
21886;SDS011;11108;49.988;8.182;2022-12-10T08:42:21;15.13;;;1.87;;
21886;SDS011;11108;49.988;8.182;2022-12-10T08:44:47;4.03;;;1.90;;
21886;SDS011;11108;49.988;8.182;2022-12-10T08:47:12;1.73;;;1.63;;
21886;SDS011;11108;49.988;8.182;2022-12-10T08:49:37;2.60;;;1.50;;
21886;SDS011;11108;49.988;8.182;2022-12-10T08:52:02;2.10;;;1.60;;
21886;SDS011;11108;49.988;8.182;2022-12-10T08:54:27;1.60;;;1.50;;
21886;SDS011;11108;49.988;8.182;2022-12-10T08:56:53;2.07;;;1.63;;
21886;SDS011;11108;49.988;8.182;2022-12-10T08:59:18;3.33;;;1.57;;
21886;SDS011;11108;49.988;8.182;2022-12-10T09:01:43;2.10;;;1.40;;
21886;SDS011;11108;49.988;8.182;2022-12-10T09:04:08;1.73;;;1.57;;
21886;SDS011;11108;49.988;8.182;2022-12-10T09:06:34;2.70;;;1.63;;
21886;SDS011;11108;49.988;8.182;2022-12-10T09:08:59;3.50;;;1.50;;
21886;SDS011;11108;49.988;8.182;2022-12-10T09:11:26;2.73;;;1.70;;
21886;SDS011;11108;49.988;8.182;2022-12-10T09:13:52;2.47;;;1.87;;
21886;SDS011;11108;49.988;8.182;2022-12-10T09:16:17;2.70;;;1.80;;
21886;SDS011;11108;49.988;8.182;2022-12-10T09:18:43;2.07;;;1.93;;
21886;SDS011;11108;49.988;8.182;2022-12-10T09:21:09;1.87;;;1.77;;
21886;SDS011;11108;49.988;8.182;2022-12-10T09:23:35;1.80;;;1.70;;
21886;SDS011;11108;49.988;8.182;2022-12-10T09:26:01;1.90;;;1.67;;
21886;SDS011;11108;49.988;8.182;2022-12-10T09:28:26;2.10;;;1.80;;
21886;SDS011;11108;49.988;8.182;2022-12-10T09:30:56;2.90;;;2.00;;
21886;SDS011;11108;49.988;8.182;2022-12-10T09:33:22;2.07;;;1.90;;
21886;SDS011;11108;49.988;8.182;2022-12-10T09:35:47;1.90;;;1.70;;
21886;SDS011;11108;49.988;8.182;2022-12-10T09:38:12;2.07;;;1.87;;
21886;SDS011;11108;49.988;8.182;2022-12-10T09:41:00;2.10;;;1.90;;
21886;SDS011;11108;49.988;8.182;2022-12-10T09:43:37;2.03;;;1.93;;
21886;SDS011;11108;49.988;8.182;2022-12-10T09:46:06;2.90;;;2.00;;
21886;SDS011;11108;49.988;8.182;2022-12-10T09:53:28;10.57;;;4.00;;
21886;SDS011;11108;49.988;8.182;2022-12-10T09:55:54;9.60;;;4.27;;
21886;SDS011;11108;49.988;8.182;2022-12-10T09:58:21;15.03;;;5.07;;
21886;SDS011;11108;49.988;8.182;2022-12-10T10:00:47;12.97;;;5.73;;
21886;SDS011;11108;49.988;8.182;2022-12-10T10:03:13;19.40;;;7.03;;
21886;SDS011;11108;49.988;8.182;2022-12-10T10:05:40;20.17;;;8.33;;
21886;SDS011;11108;49.988;8.182;2022-12-10T10:08:06;25.57;;;9.03;;
21886;SDS011;11108;49.988;8.182;2022-12-10T10:10:36;20.03;;;8.87;;
21886;SDS011;11108;49.988;8.182;2022-12-10T10:15:46;20.50;;;8.70;;
21886;SDS011;11108;49.988;8.182;2022-12-10T10:20:56;18.63;;;8.53;;
21886;SDS011;11108;49.988;8.182;2022-12-10T10:23:22;21.47;;;8.60;;
21886;SDS011;11108;49.988;8.182;2022-12-10T10:25:47;19.10;;;8.77;;
21886;SDS011;11108;49.988;8.182;2022-12-10T10:28:13;16.30;;;8.30;;
21886;SDS011;11108;49.988;8.182;2022-12-10T10:30:41;20.30;;;8.40;;
21886;SDS011;11108;49.988;8.182;2022-12-10T10:33:08;17.17;;;8.33;;
21886;SDS011;11108;49.988;8.182;2022-12-10T10:35:40;18.77;;;9.70;;
21886;SDS011;11108;49.988;8.182;2022-12-10T10:38:07;16.90;;;9.60;;
21886;SDS011;11108;49.988;8.182;2022-12-10T10:40:42;18.73;;;8.40;;
21886;SDS011;11108;49.988;8.182;2022-12-10T10:43:13;16.80;;;9.53;;
21886;SDS011;11108;49.988;8.182;2022-12-10T10:45:39;20.80;;;9.20;;
21886;SDS011;11108;49.988;8.182;2022-12-10T10:48:12;17.37;;;8.53;;
21886;SDS011;11108;49.988;8.182;2022-12-10T10:50:39;18.17;;;9.40;;
21886;SDS011;11108;49.988;8.182;2022-12-10T10:53:21;18.30;;;8.43;;
21886;SDS011;11108;49.988;8.182;2022-12-10T10:55:47;16.40;;;9.13;;
21886;SDS011;11108;49.988;8.182;2022-12-10T10:58:19;19.17;;;9.23;;
21886;SDS011;11108;49.988;8.182;2022-12-10T11:00:52;19.67;;;8.40;;
21886;SDS011;11108;49.988;8.182;2022-12-10T11:03:18;14.13;;;8.03;;
21886;SDS011;11108;49.988;8.182;2022-12-10T11:05:43;17.50;;;8.73;;
21886;SDS011;11108;49.988;8.182;2022-12-10T11:08:18;15.10;;;8.00;;
21886;SDS011;11108;49.988;8.182;2022-12-10T11:10:46;16.93;;;8.03;;
21886;SDS011;11108;49.988;8.182;2022-12-10T11:13:19;14.13;;;7.77;;
21886;SDS011;11108;49.988;8.182;2022-12-10T11:15:53;13.40;;;7.17;;
21886;SDS011;11108;49.988;8.182;2022-12-10T11:18:29;14.03;;;7.43;;
21886;SDS011;11108;49.988;8.182;2022-12-10T11:20:58;13.80;;;7.37;;
21886;SDS011;11108;49.988;8.182;2022-12-10T11:23:27;17.03;;;7.83;;
21886;SDS011;11108;49.988;8.182;2022-12-10T11:25:57;12.87;;;7.40;;
21886;SDS011;11108;49.988;8.182;2022-12-10T11:33:43;11.57;;;5.87;;
21886;SDS011;11108;49.988;8.182;2022-12-10T11:41:34;12.67;;;6.13;;
21886;SDS011;11108;49.988;8.182;2022-12-10T11:44:23;12.40;;;5.50;;
21886;SDS011;11108;49.988;8.182;2022-12-10T11:46:57;9.30;;;5.80;;
21886;SDS011;11108;49.988;8.182;2022-12-10T11:52:01;10.30;;;5.67;;
21886;SDS011;11108;49.988;8.182;2022-12-10T11:54:38;10.33;;;5.60;;
21886;SDS011;11108;49.988;8.182;2022-12-10T11:57:13;11.57;;;5.47;;
21886;SDS011;11108;49.988;8.182;2022-12-10T12:02:32;8.90;;;5.60;;
21886;SDS011;11108;49.988;8.182;2022-12-10T12:14:59;9.43;;;4.60;;
21886;SDS011;11108;49.988;8.182;2022-12-10T12:17:26;7.27;;;4.27;;
21886;SDS011;11108;49.988;8.182;2022-12-10T12:19:53;10.20;;;5.03;;
21886;SDS011;11108;49.988;8.182;2022-12-10T12:24:52;11.00;;;4.40;;
21886;SDS011;11108;49.988;8.182;2022-12-10T12:27:27;6.17;;;3.83;;
21886;SDS011;11108;49.988;8.182;2022-12-10T12:30:10;6.37;;;4.03;;
21886;SDS011;11108;49.988;8.182;2022-12-10T12:35:16;22.67;;;11.50;;
21886;SDS011;11108;49.988;8.182;2022-12-10T12:37:46;27.77;;;12.57;;
21886;SDS011;11108;49.988;8.182;2022-12-10T12:40:23;26.60;;;13.63;;
21886;SDS011;11108;49.988;8.182;2022-12-10T12:42:53;29.57;;;14.83;;
21886;SDS011;11108;49.988;8.182;2022-12-10T12:45:21;23.40;;;14.10;;
21886;SDS011;11108;49.988;8.182;2022-12-10T12:52:53;30.30;;;14.87;;
21886;SDS011;11108;49.988;8.182;2022-12-10T12:55:25;27.40;;;14.33;;
21886;SDS011;11108;49.988;8.182;2022-12-10T12:57:58;25.37;;;14.10;;
21886;SDS011;11108;49.988;8.182;2022-12-10T13:00:28;25.40;;;13.53;;
21886;SDS011;11108;49.988;8.182;2022-12-10T13:05:41;32.03;;;12.17;;
21886;SDS011;11108;49.988;8.182;2022-12-10T13:15:47;23.47;;;10.93;;
21886;SDS011;11108;49.988;8.182;2022-12-10T13:28:20;16.13;;;10.27;;
21886;SDS011;11108;49.988;8.182;2022-12-10T13:31:05;15.60;;;9.27;;
21886;SDS011;11108;49.988;8.182;2022-12-10T13:36:11;22.37;;;10.03;;
21886;SDS011;11108;49.988;8.182;2022-12-10T13:38:54;18.73;;;9.80;;
21886;SDS011;11108;49.988;8.182;2022-12-10T13:41:20;18.50;;;9.20;;
21886;SDS011;11108;49.988;8.182;2022-12-10T13:44:21;23.40;;;8.47;;
21886;SDS011;11108;49.988;8.182;2022-12-10T13:46:59;21.73;;;9.50;;
21886;SDS011;11108;49.988;8.182;2022-12-10T13:49:29;17.90;;;8.57;;
21886;SDS011;11108;49.988;8.182;2022-12-10T13:51:57;15.63;;;7.90;;
21886;SDS011;11108;49.988;8.182;2022-12-10T13:59:57;13.87;;;7.43;;
21886;SDS011;11108;49.988;8.182;2022-12-10T14:02:52;13.67;;;6.73;;
21886;SDS011;11108;49.988;8.182;2022-12-10T14:06:22;19.47;;;6.37;;
21886;SDS011;11108;49.988;8.182;2022-12-10T14:08:17;13.17;;;6.27;;
21886;SDS011;11108;49.988;8.182;2022-12-10T14:10:43;14.70;;;6.37;;
21886;SDS011;11108;49.988;8.182;2022-12-10T14:13:10;12.60;;;6.03;;
21886;SDS011;11108;49.988;8.182;2022-12-10T14:15:36;14.33;;;5.87;;
21886;SDS011;11108;49.988;8.182;2022-12-10T14:18:12;12.37;;;5.03;;
21886;SDS011;11108;49.988;8.182;2022-12-10T14:20:39;11.07;;;4.90;;
21886;SDS011;11108;49.988;8.182;2022-12-10T14:23:19;14.77;;;6.03;;
21886;SDS011;11108;49.988;8.182;2022-12-10T14:26:03;9.73;;;5.10;;
21886;SDS011;11108;49.988;8.182;2022-12-10T14:28:29;14.30;;;6.27;;
21886;SDS011;11108;49.988;8.182;2022-12-10T14:30:54;10.40;;;4.80;;
21886;SDS011;11108;49.988;8.182;2022-12-10T14:33:21;10.60;;;5.17;;
21886;SDS011;11108;49.988;8.182;2022-12-10T14:35:50;11.10;;;5.17;;
21886;SDS011;11108;49.988;8.182;2022-12-10T14:38:20;8.27;;;4.83;;
21886;SDS011;11108;49.988;8.182;2022-12-10T14:40:46;14.20;;;5.20;;
21886;SDS011;11108;49.988;8.182;2022-12-10T14:43:17;10.90;;;4.73;;
21886;SDS011;11108;49.988;8.182;2022-12-10T14:48:10;16.23;;;5.53;;
21886;SDS011;11108;49.988;8.182;2022-12-10T14:50:36;8.23;;;4.70;;
21886;SDS011;11108;49.988;8.182;2022-12-10T14:53:02;13.50;;;5.87;;
21886;SDS011;11108;49.988;8.182;2022-12-10T14:55:28;9.70;;;4.83;;
21886;SDS011;11108;49.988;8.182;2022-12-10T14:57:54;9.23;;;5.13;;
21886;SDS011;11108;49.988;8.182;2022-12-10T15:00:21;13.80;;;5.00;;
21886;SDS011;11108;49.988;8.182;2022-12-10T15:02:48;9.50;;;4.63;;
21886;SDS011;11108;49.988;8.182;2022-12-10T15:05:27;16.17;;;5.00;;
21886;SDS011;11108;49.988;8.182;2022-12-10T15:08:00;15.73;;;5.50;;
21886;SDS011;11108;49.988;8.182;2022-12-10T15:10:37;12.47;;;4.90;;
21886;SDS011;11108;49.988;8.182;2022-12-10T15:13:03;10.53;;;5.00;;
21886;SDS011;11108;49.988;8.182;2022-12-10T15:15:29;10.20;;;4.80;;
21886;SDS011;11108;49.988;8.182;2022-12-10T15:23:07;11.73;;;4.20;;
21886;SDS011;11108;49.988;8.182;2022-12-10T15:25:40;16.27;;;5.13;;
21886;SDS011;11108;49.988;8.182;2022-12-10T15:28:20;11.43;;;5.40;;
21886;SDS011;11108;49.988;8.182;2022-12-10T15:30:46;15.63;;;4.93;;
21886;SDS011;11108;49.988;8.182;2022-12-10T15:33:27;9.10;;;4.30;;
21886;SDS011;11108;49.988;8.182;2022-12-10T15:38:39;13.70;;;4.80;;
21886;SDS011;11108;49.988;8.182;2022-12-10T15:41:24;10.73;;;4.60;;
21886;SDS011;11108;49.988;8.182;2022-12-10T15:44:02;14.17;;;4.90;;
21886;SDS011;11108;49.988;8.182;2022-12-10T15:46:27;9.90;;;4.27;;
21886;SDS011;11108;49.988;8.182;2022-12-10T15:48:52;9.77;;;4.00;;
21886;SDS011;11108;49.988;8.182;2022-12-10T15:51:18;12.57;;;4.77;;
21886;SDS011;11108;49.988;8.182;2022-12-10T15:53:43;10.27;;;4.30;;
21886;SDS011;11108;49.988;8.182;2022-12-10T15:56:08;8.00;;;3.80;;
21886;SDS011;11108;49.988;8.182;2022-12-10T15:58:33;11.67;;;4.17;;
21886;SDS011;11108;49.988;8.182;2022-12-10T16:00:59;12.03;;;4.00;;
21886;SDS011;11108;49.988;8.182;2022-12-10T16:03:24;8.10;;;3.60;;
21886;SDS011;11108;49.988;8.182;2022-12-10T16:05:51;13.73;;;5.33;;
21886;SDS011;11108;49.988;8.182;2022-12-10T16:08:21;13.00;;;4.57;;
21886;SDS011;11108;49.988;8.182;2022-12-10T16:10:47;8.10;;;4.73;;
21886;SDS011;11108;49.988;8.182;2022-12-10T16:13:16;9.57;;;4.10;;
21886;SDS011;11108;49.988;8.182;2022-12-10T16:15:49;9.77;;;4.10;;
21886;SDS011;11108;49.988;8.182;2022-12-10T16:18:15;8.67;;;4.00;;
21886;SDS011;11108;49.988;8.182;2022-12-10T16:20:40;7.97;;;4.00;;
21886;SDS011;11108;49.988;8.182;2022-12-10T16:23:05;8.20;;;4.37;;
21886;SDS011;11108;49.988;8.182;2022-12-10T16:25:31;5.97;;;3.73;;
21886;SDS011;11108;49.988;8.182;2022-12-10T16:27:57;10.10;;;4.27;;
21886;SDS011;11108;49.988;8.182;2022-12-10T16:30:24;9.63;;;4.27;;